createdAt,value
2018-04-16T00:00:35.711Z,13.53
2018-04-16T00:03:03.846Z,13.50
2018-04-16T00:05:32.636Z,15.87
2018-04-16T00:08:00.733Z,14.40
2018-04-16T00:10:28.848Z,14.80
2018-04-16T00:12:56.957Z,16.80
2018-04-16T00:15:25.072Z,14.23
2018-04-16T00:17:53.211Z,15.53
2018-04-16T00:20:21.311Z,19.60
2018-04-16T00:22:49.443Z,16.70
2018-04-16T00:25:17.586Z,16.40
2018-04-16T00:27:45.720Z,15.03
2018-04-16T00:30:14.341Z,15.17
2018-04-16T00:32:47.878Z,15.80
2018-04-16T00:35:21.577Z,13.60
2018-04-16T00:37:55.273Z,14.93
2018-04-16T00:40:28.879Z,14.37
2018-04-16T00:43:02.457Z,14.17
2018-04-16T00:45:36.152Z,14.23
2018-04-16T00:48:09.912Z,20.30
2018-04-16T00:50:43.561Z,13.57
2018-04-16T00:53:17.109Z,14.70
2018-04-16T00:55:50.613Z,15.43
2018-04-16T00:58:24.177Z,14.60
2018-04-16T01:00:57.860Z,16.07
2018-04-16T01:03:31.574Z,14.67
2018-04-16T01:06:05.197Z,15.17
2018-04-16T01:08:38.764Z,13.40
2018-04-16T01:11:12.513Z,16.63
2018-04-16T01:13:46.217Z,14.97
2018-04-16T01:16:19.758Z,16.00
2018-04-16T01:18:53.359Z,13.60
2018-04-16T01:21:26.929Z,14.57
2018-04-16T01:24:01.558Z,14.43
2018-04-16T01:29:38.109Z,13.37
2018-04-16T01:32:11.793Z,13.03
2018-04-16T01:34:45.537Z,12.60
2018-04-16T01:37:19.111Z,14.10
2018-04-16T01:39:52.686Z,18.23
2018-04-16T01:42:26.113Z,12.70
2018-04-16T01:44:59.752Z,12.63
2018-04-16T01:47:33.358Z,12.40
2018-04-16T01:50:06.999Z,15.47
2018-04-16T01:52:40.692Z,11.30
2018-04-16T01:55:14.346Z,14.23
2018-04-16T01:57:48.010Z,11.27
2018-04-16T02:00:21.575Z,11.27
2018-04-16T02:02:55.158Z,13.43
2018-04-16T02:05:28.662Z,11.57
2018-04-16T02:08:02.221Z,12.13
2018-04-16T02:10:35.752Z,10.47
2018-04-16T02:13:09.459Z,10.73
2018-04-16T02:15:43.064Z,11.37
2018-04-16T02:18:16.571Z,9.17
2018-04-16T02:20:50.283Z,13.07
2018-04-16T02:23:24.443Z,9.47
2018-04-16T02:25:58.243Z,10.67
2018-04-16T02:28:31.783Z,12.70
2018-04-16T02:34:12.058Z,11.70
2018-04-16T02:36:46.452Z,12.30
2018-04-16T02:39:20.030Z,9.63
2018-04-16T02:41:53.703Z,10.30
2018-04-16T02:44:27.384Z,10.43
2018-04-16T02:47:01.011Z,10.10
2018-04-16T02:49:34.602Z,9.63
2018-04-16T02:55:15.321Z,8.40
2018-04-16T02:57:49.147Z,10.53
2018-04-16T03:00:22.706Z,8.10
2018-04-16T03:02:56.225Z,9.90
2018-04-16T03:05:29.789Z,10.50
2018-04-16T03:08:03.323Z,13.20
2018-04-16T03:10:36.978Z,11.50
2018-04-16T03:13:10.496Z,9.37
2018-04-16T03:15:44.906Z,14.60
2018-04-16T03:18:19.238Z,9.43
2018-04-16T03:20:52.891Z,11.20
2018-04-16T03:23:26.475Z,8.80
2018-04-16T03:26:00.181Z,9.60
2018-04-16T03:28:33.754Z,10.27
2018-04-16T03:31:07.258Z,11.67
2018-04-16T03:33:40.780Z,10.07
2018-04-16T03:36:14.495Z,12.27
2018-04-16T03:38:47.998Z,8.73
2018-04-16T03:41:21.544Z,9.20
2018-04-16T03:43:55.056Z,10.07
2018-04-16T03:46:28.659Z,9.97
2018-04-16T03:49:02.131Z,9.50
2018-04-16T03:51:46.854Z,11.20
2018-04-16T03:54:14.978Z,12.40
2018-04-16T03:56:43.092Z,8.43
2018-04-16T03:59:11.216Z,13.67
2018-04-16T04:01:40.187Z,12.83
2018-04-16T04:04:08.383Z,8.60
2018-04-16T04:06:36.579Z,12.07
2018-04-16T04:09:04.748Z,11.70
2018-04-16T04:11:32.856Z,10.23
2018-04-16T04:14:01.042Z,11.43
2018-04-16T04:16:29.152Z,8.50
2018-04-16T04:18:58.094Z,7.87
2018-04-16T04:21:26.282Z,12.03
2018-04-16T04:24:12.108Z,8.30
2018-04-16T04:26:57.843Z,8.17
2018-04-16T04:29:43.670Z,10.90
2018-04-16T04:32:11.825Z,13.47
2018-04-16T04:34:40.001Z,10.27
2018-04-16T04:37:08.113Z,9.53
2018-04-16T04:39:36.199Z,12.60
2018-04-16T04:42:04.311Z,12.90
2018-04-16T04:44:32.416Z,11.20
2018-04-16T04:47:00.543Z,13.97
2018-04-16T04:49:28.627Z,13.17
2018-04-16T04:51:56.838Z,9.70
2018-04-16T04:54:24.981Z,13.80
2018-04-16T04:56:56.947Z,16.40
2018-04-16T04:59:25.051Z,15.17
2018-04-16T05:01:53.173Z,15.00
2018-04-16T05:04:21.313Z,17.77
2018-04-16T05:06:49.437Z,13.50
2018-04-16T05:09:17.554Z,15.83
2018-04-16T05:11:45.711Z,18.90
2018-04-16T05:14:13.835Z,19.60
2018-04-16T05:16:41.958Z,21.23
2018-04-16T05:19:10.094Z,24.83
2018-04-16T05:21:38.232Z,19.97
2018-04-16T05:24:06.349Z,18.90
2018-04-16T05:26:34.468Z,16.20
2018-04-16T05:29:02.574Z,20.77
2018-04-16T05:31:30.694Z,20.93
2018-04-16T05:33:59.593Z,21.70
2018-04-16T05:36:31.677Z,19.07
2018-04-16T05:38:59.798Z,20.57
2018-04-16T05:41:27.914Z,19.30
2018-04-16T05:43:56.036Z,15.27
2018-04-16T05:46:24.174Z,14.87
2018-04-16T05:48:52.310Z,18.53
2018-04-16T05:51:20.443Z,11.53
2018-04-16T05:53:48.570Z,29.67
2018-04-16T05:56:16.687Z,22.20
2018-04-16T05:58:44.798Z,19.87
2018-04-16T06:01:12.929Z,27.30
2018-04-16T06:03:41.126Z,23.37
2018-04-16T06:06:09.893Z,19.27
2018-04-16T06:08:38.023Z,21.83
2018-04-16T06:11:06.205Z,20.97
2018-04-16T06:13:34.372Z,19.80
2018-04-16T06:16:02.445Z,15.73
2018-04-16T06:18:36.931Z,20.67
2018-04-16T06:21:05.048Z,20.47
2018-04-16T06:23:33.227Z,25.77
2018-04-16T06:26:01.347Z,26.93
2018-04-16T06:28:29.514Z,22.90
2018-04-16T06:30:57.617Z,24.17
2018-04-16T06:33:25.730Z,27.17
2018-04-16T06:35:53.850Z,28.40
2018-04-16T06:38:21.968Z,31.47
2018-04-16T06:40:50.085Z,29.10
2018-04-16T06:43:18.218Z,21.43
2018-04-16T06:45:46.342Z,20.70
2018-04-16T06:48:15.263Z,27.23
2018-04-16T06:50:43.395Z,24.27
2018-04-16T06:53:11.836Z,25.60
2018-04-16T06:55:41.533Z,56.87
2018-04-16T06:58:09.716Z,37.10
2018-04-16T07:00:38.943Z,32.63
2018-04-16T07:03:07.052Z,38.07
2018-04-16T07:05:35.166Z,29.00
2018-04-16T07:08:04.048Z,33.23
2018-04-16T07:10:32.155Z,30.73
2018-04-16T07:13:01.063Z,32.33
2018-04-16T07:15:29.930Z,48.20
2018-04-16T07:17:58.052Z,41.80
2018-04-16T07:20:26.203Z,43.97
2018-04-16T07:22:54.450Z,64.50
2018-04-16T07:25:22.552Z,49.60
2018-04-16T07:27:50.653Z,63.97
2018-04-16T07:30:18.769Z,57.20
2018-04-16T07:32:46.903Z,53.97
2018-04-16T07:35:14.995Z,50.87
2018-04-16T07:37:43.123Z,59.63
2018-04-16T07:40:11.372Z,70.27
2018-04-16T07:42:39.478Z,64.47
2018-04-16T07:45:07.764Z,45.27
2018-04-16T07:47:35.943Z,62.73
2018-04-16T07:50:04.095Z,58.93
2018-04-16T07:52:32.185Z,48.57
2018-04-16T07:55:01.026Z,79.63
2018-04-16T07:57:29.141Z,64.77
2018-04-16T07:59:57.298Z,68.77
2018-04-16T08:02:25.508Z,69.17
2018-04-16T08:04:53.643Z,78.40
2018-04-16T08:07:22.517Z,56.60
2018-04-16T08:09:50.608Z,76.07
2018-04-16T08:12:19.489Z,52.27
2018-04-16T08:14:47.606Z,51.20
2018-04-16T08:17:15.734Z,38.97
2018-04-16T08:19:43.842Z,55.53
2018-04-16T08:22:12.001Z,47.13
2018-04-16T08:24:40.091Z,57.13
2018-04-16T08:27:08.215Z,60.40
2018-04-16T08:29:36.330Z,52.90
2018-04-16T08:32:04.423Z,47.13
2018-04-16T08:34:33.361Z,45.57
2018-04-16T08:37:02.231Z,39.97
2018-04-16T08:39:30.353Z,38.23
2018-04-16T08:41:58.455Z,41.03
2018-04-16T08:44:27.497Z,43.30
2018-04-16T08:46:55.652Z,41.17
2018-04-16T08:49:23.760Z,51.23
2018-04-16T08:51:51.895Z,40.17
2018-04-16T08:54:20.008Z,37.07
2018-04-16T08:56:48.137Z,33.70
2018-04-16T08:59:16.230Z,34.77
2018-04-16T09:01:48.420Z,27.10
2018-04-16T09:04:16.867Z,28.00
2018-04-16T09:06:45.012Z,27.27
2018-04-16T09:09:13.116Z,35.03
2018-04-16T09:11:41.214Z,23.43
2018-04-16T09:14:09.335Z,37.40
2018-04-16T09:16:37.442Z,31.63
2018-04-16T09:19:05.558Z,43.03
2018-04-16T09:21:33.677Z,38.77
2018-04-16T09:24:01.805Z,32.30
2018-04-16T09:26:29.929Z,28.93
2018-04-16T09:28:58.089Z,26.17
2018-04-16T09:31:26.274Z,27.50
2018-04-16T09:33:54.500Z,32.23
2018-04-16T09:36:22.783Z,39.63
2018-04-16T09:38:51.038Z,35.23
2018-04-16T09:41:19.254Z,34.37
2018-04-16T09:43:47.542Z,26.17
2018-04-16T09:46:15.794Z,30.00
2018-04-16T09:48:43.976Z,35.27
2018-04-16T09:51:12.230Z,31.73
2018-04-16T09:53:40.476Z,28.30
2018-04-16T09:56:08.684Z,26.43
2018-04-16T09:58:36.887Z,24.43
2018-04-16T10:01:10.471Z,24.77
2018-04-16T10:03:38.582Z,27.60
2018-04-16T10:06:10.647Z,25.43
2018-04-16T10:08:39.517Z,33.67
2018-04-16T10:11:07.625Z,25.80
2018-04-16T10:13:35.728Z,24.27
2018-04-16T10:16:03.831Z,28.70
2018-04-16T10:18:31.925Z,27.90
2018-04-16T10:21:00.063Z,32.27
2018-04-16T10:23:28.263Z,46.57
2018-04-16T10:25:56.377Z,33.07
2018-04-16T10:28:24.486Z,25.60
2018-04-16T10:30:52.615Z,22.37
2018-04-16T10:33:21.470Z,23.73
2018-04-16T10:35:49.610Z,31.00
2018-04-16T10:38:17.758Z,33.23
2018-04-16T10:40:45.868Z,26.67
2018-04-16T10:43:13.997Z,30.83
2018-04-16T10:45:42.099Z,24.67
2018-04-16T10:48:10.193Z,27.47
2018-04-16T10:50:38.308Z,22.43
2018-04-16T10:53:06.414Z,25.13
2018-04-16T10:55:34.633Z,21.27
2018-04-16T10:58:02.722Z,21.47
2018-04-16T11:00:30.864Z,18.60
2018-04-16T11:02:58.972Z,21.67
2018-04-16T11:05:27.082Z,19.60
2018-04-16T11:07:55.198Z,15.27
2018-04-16T11:10:23.308Z,14.57
2018-04-16T11:12:51.415Z,18.63
2018-04-16T11:15:19.594Z,16.07
2018-04-16T11:17:47.715Z,17.33
2018-04-16T11:20:15.840Z,18.43
2018-04-16T11:22:43.950Z,26.30
2018-04-16T11:25:12.056Z,19.87
2018-04-16T11:27:40.169Z,22.40
2018-04-16T11:30:08.288Z,16.83
2018-04-16T11:32:36.421Z,21.03
2018-04-16T11:35:04.535Z,18.93
2018-04-16T11:37:32.655Z,22.43
2018-04-16T11:40:00.763Z,24.23
2018-04-16T11:42:28.981Z,19.80
2018-04-16T11:44:57.117Z,22.50
2018-04-16T11:47:25.209Z,19.27
2018-04-16T11:49:53.346Z,18.40
2018-04-16T11:52:21.448Z,17.40
2018-04-16T11:54:49.626Z,22.47
2018-04-16T11:57:17.783Z,22.33
2018-04-16T11:59:45.981Z,19.67
2018-04-16T12:02:14.324Z,21.87
2018-04-16T12:04:42.562Z,18.80
2018-04-16T12:07:10.657Z,23.63
2018-04-16T12:09:39.530Z,22.27
2018-04-16T12:12:07.684Z,29.27
2018-04-16T12:14:35.840Z,33.53
2018-04-16T12:17:03.932Z,26.00
2018-04-16T12:19:32.076Z,29.13
2018-04-16T12:22:00.239Z,25.67
2018-04-16T12:24:34.100Z,27.17
2018-04-16T12:27:09.614Z,30.50
2018-04-16T12:29:49.085Z,50.43
2018-04-16T12:32:17.972Z,34.43
2018-04-16T12:34:51.659Z,36.83
2018-04-16T12:37:19.796Z,53.07
2018-04-16T12:39:47.905Z,59.33
2018-04-16T12:42:21.565Z,29.90
2018-04-16T12:44:55.439Z,28.27
2018-04-16T12:47:29.462Z,18.63
2018-04-16T12:50:03.921Z,17.47
2018-04-16T12:52:32.024Z,18.10
2018-04-16T12:55:00.138Z,14.87
2018-04-16T12:57:28.265Z,14.20
2018-04-16T13:00:02.299Z,18.20
2018-04-16T13:02:35.866Z,18.00
2018-04-16T13:05:03.976Z,22.73
2018-04-16T13:07:37.909Z,17.27
2018-04-16T13:10:11.798Z,17.93
2018-04-16T13:12:39.916Z,17.00
2018-04-16T13:15:08.028Z,19.67
2018-04-16T13:17:47.474Z,22.27
2018-04-16T13:20:21.002Z,12.83
2018-04-16T13:22:49.126Z,20.07
2018-04-16T13:25:18.438Z,13.10
2018-04-16T13:27:46.550Z,12.10
2018-04-16T13:30:14.680Z,11.00
2018-04-16T13:32:42.804Z,10.93
2018-04-16T13:35:16.768Z,11.40
2018-04-16T13:37:50.396Z,12.33
2018-04-16T13:40:24.261Z,12.80
2018-04-16T13:43:03.863Z,15.67
2018-04-16T13:45:32.010Z,14.63
2018-04-16T13:48:00.872Z,15.40
2018-04-16T13:50:28.981Z,17.00
2018-04-16T13:52:57.079Z,21.13
2018-04-16T13:55:31.050Z,22.17
2018-04-16T13:57:59.166Z,23.20
2018-04-16T14:00:33.037Z,29.13
2018-04-16T14:03:07.030Z,30.60
2018-04-16T14:05:35.145Z,43.43
2018-04-16T14:08:03.253Z,33.37
2018-04-16T14:10:37.143Z,46.80
2018-04-16T14:13:05.247Z,38.90
2018-04-16T14:15:39.184Z,31.17
2018-04-16T14:18:13.196Z,29.03
2018-04-16T14:20:41.309Z,21.90
2018-04-16T14:23:15.240Z,14.47
2018-04-16T14:25:43.362Z,53.63
2018-04-16T14:28:17.336Z,22.33
2018-04-16T14:30:46.226Z,28.77
2018-04-16T14:33:14.335Z,32.33
2018-04-16T14:35:43.265Z,21.97
2018-04-16T14:38:11.376Z,19.83
2018-04-16T14:40:39.496Z,22.60
2018-04-16T14:43:13.400Z,20.20
2018-04-16T14:45:42.122Z,14.43
2018-04-16T14:48:16.054Z,13.10
2018-04-16T14:50:44.234Z,14.87
2018-04-16T14:53:24.141Z,15.47
2018-04-16T14:55:52.256Z,11.53
2018-04-16T14:58:26.525Z,13.93
2018-04-16T15:01:00.509Z,15.60
2018-04-16T15:03:28.670Z,11.07
2018-04-16T15:05:56.775Z,13.50
2018-04-16T15:08:24.908Z,12.77
2018-04-16T15:11:10.320Z,20.33
2018-04-16T15:13:38.431Z,19.83
2018-04-16T15:16:06.568Z,15.93
2018-04-16T15:18:34.677Z,41.77
2018-04-16T15:21:02.800Z,22.00
2018-04-16T15:23:30.904Z,28.53
2018-04-16T15:25:59.066Z,29.50
2018-04-16T15:28:27.194Z,17.13
2018-04-16T15:30:55.343Z,19.93
2018-04-16T15:33:23.531Z,24.77
2018-04-16T15:35:51.743Z,32.93
2018-04-16T15:38:20.011Z,40.50
2018-04-16T15:40:48.123Z,19.47
2018-04-16T15:43:16.236Z,29.30
2018-04-16T15:45:44.351Z,28.73
2018-04-16T15:48:12.470Z,24.53
2018-04-16T15:50:41.356Z,26.43
2018-04-16T15:53:09.506Z,23.93
2018-04-16T15:55:38.587Z,23.53
2018-04-16T15:58:06.713Z,23.67
2018-04-16T16:00:35.216Z,25.20
2018-04-16T16:03:03.428Z,21.03
2018-04-16T16:05:31.712Z,19.73
2018-04-16T16:07:59.942Z,24.23
2018-04-16T16:10:28.107Z,14.77
2018-04-16T16:12:56.505Z,21.17
2018-04-16T16:15:24.704Z,27.20
2018-04-16T16:17:52.900Z,20.93
2018-04-16T16:20:21.116Z,26.87
2018-04-16T16:22:49.226Z,22.70
2018-04-16T16:25:17.335Z,25.53
2018-04-16T16:27:45.499Z,21.03
2018-04-16T16:30:14.372Z,19.57
2018-04-16T16:32:42.470Z,17.67
2018-04-16T16:35:10.647Z,19.43
2018-04-16T16:37:38.955Z,19.50
2018-04-16T16:40:07.098Z,22.60
2018-04-16T16:42:35.287Z,25.77
2018-04-16T16:45:03.411Z,17.10
2018-04-16T16:47:31.542Z,13.47
2018-04-16T16:49:59.654Z,14.63
2018-04-16T16:52:27.767Z,18.63
2018-04-16T16:54:55.924Z,17.00
2018-04-16T16:57:24.060Z,21.83
2018-04-16T16:59:52.194Z,17.83
2018-04-16T17:02:20.439Z,22.43
2018-04-16T17:04:48.583Z,29.27
2018-04-16T17:07:16.843Z,27.87
2018-04-16T17:09:45.218Z,16.53
2018-04-16T17:12:13.356Z,19.40
2018-04-16T17:14:42.770Z,21.33
2018-04-16T17:17:10.933Z,21.77
2018-04-16T17:19:39.064Z,13.27
2018-04-16T17:22:07.171Z,14.23
2018-04-16T17:24:35.298Z,15.60
2018-04-16T17:27:07.281Z,11.40
2018-04-16T17:29:35.402Z,9.80
2018-04-16T17:32:03.532Z,13.07
2018-04-16T17:34:31.653Z,8.10
2018-04-16T17:36:59.763Z,11.73
2018-04-16T17:39:27.951Z,10.80
2018-04-16T17:41:56.155Z,11.03
2018-04-16T17:44:24.273Z,12.30
2018-04-16T17:46:52.399Z,13.63
2018-04-16T17:49:24.448Z,8.87
2018-04-16T17:51:52.576Z,9.60
2018-04-16T17:54:20.666Z,8.27
2018-04-16T17:56:48.788Z,7.23
2018-04-16T17:59:16.953Z,9.47
2018-04-16T18:01:45.212Z,9.97
2018-04-16T18:04:14.146Z,11.30
2018-04-16T18:06:42.255Z,15.57
2018-04-16T18:09:10.410Z,13.70
2018-04-16T18:11:38.650Z,14.67
2018-04-16T18:14:06.786Z,26.03
2018-04-16T18:16:34.886Z,20.90
2018-04-16T18:19:03.008Z,17.83
2018-04-16T18:21:31.126Z,21.27
2018-04-16T18:23:59.272Z,20.33
2018-04-16T18:26:27.437Z,18.30
2018-04-16T18:28:56.200Z,29.37
2018-04-16T18:31:24.304Z,34.07
2018-04-16T18:33:52.553Z,26.00
2018-04-16T18:36:20.659Z,23.37
2018-04-16T18:38:49.525Z,28.43
2018-04-16T18:41:17.644Z,40.93
2018-04-16T18:43:45.775Z,31.23
2018-04-16T18:46:13.901Z,37.20
2018-04-16T18:48:42.022Z,42.77
2018-04-16T18:51:10.148Z,40.53
2018-04-16T18:53:38.955Z,34.67
2018-04-16T18:56:07.100Z,41.70
2018-04-16T18:58:35.207Z,41.47
2018-04-16T19:01:07.018Z,44.73
2018-04-16T19:03:35.208Z,60.93
2018-04-16T19:06:03.447Z,63.03
2018-04-16T19:08:31.568Z,55.60
2018-04-16T19:10:59.714Z,62.40
2018-04-16T19:13:28.443Z,59.30
2018-04-16T19:15:56.636Z,67.77
2018-04-16T19:18:24.750Z,73.67
2018-04-16T19:20:58.423Z,48.83
2018-04-16T19:23:26.598Z,83.37
2018-04-16T19:25:54.705Z,53.43
2018-04-16T19:28:22.820Z,54.20
2018-04-16T19:30:50.968Z,59.97
2018-04-16T19:33:24.729Z,64.87
2018-04-16T19:35:52.851Z,48.83
2018-04-16T19:38:20.983Z,55.80
2018-04-16T19:40:49.079Z,44.73
2018-04-16T19:43:17.207Z,54.93
2018-04-16T19:45:45.335Z,57.87
2018-04-16T19:48:13.436Z,56.00
2018-04-16T19:50:45.267Z,58.47
2018-04-16T19:53:13.443Z,55.23
2018-04-16T19:55:46.965Z,34.77
2018-04-16T19:58:21.183Z,39.50
2018-04-16T20:00:53.490Z,37.67
2018-04-16T20:03:27.095Z,38.50
2018-04-16T20:05:55.219Z,43.50
2018-04-16T20:08:23.375Z,29.00
2018-04-16T20:10:51.495Z,32.30
2018-04-16T20:13:19.601Z,33.60
2018-04-16T20:15:47.773Z,50.03
2018-04-16T20:18:15.893Z,59.07
2018-04-16T20:20:44.058Z,51.27
2018-04-16T20:23:12.995Z,35.20
2018-04-16T20:25:41.871Z,45.93
2018-04-16T20:28:10.005Z,58.67
2018-04-16T20:30:38.148Z,51.23
2018-04-16T20:33:07.238Z,49.63
2018-04-16T20:35:35.469Z,46.73
2018-04-16T20:38:03.666Z,42.53
2018-04-16T20:40:31.805Z,64.60
2018-04-16T20:42:59.914Z,70.27
2018-04-16T20:45:28.038Z,75.93
2018-04-16T20:47:56.155Z,64.33
2018-04-16T20:50:24.286Z,72.77
2018-04-16T20:52:52.399Z,72.50
2018-04-16T20:55:20.516Z,76.67
2018-04-16T20:57:48.712Z,86.00
2018-04-16T21:00:16.971Z,64.90
2018-04-16T21:02:45.230Z,50.77
2018-04-16T21:05:13.475Z,78.17
2018-04-16T21:07:41.713Z,83.50
2018-04-16T21:10:09.862Z,81.40
2018-04-16T21:12:38.893Z,90.40
2018-04-16T21:15:07.025Z,84.23
2018-04-16T21:17:35.143Z,85.80
2018-04-16T21:20:03.305Z,58.03
2018-04-16T21:22:31.466Z,70.83
2018-04-16T21:25:00.587Z,46.47
2018-04-16T21:27:28.691Z,45.57
2018-04-16T21:29:56.809Z,50.63
2018-04-16T21:32:24.934Z,53.63
2018-04-16T21:34:53.065Z,44.63
2018-04-16T21:37:21.798Z,50.60
2018-04-16T21:39:49.990Z,60.30
2018-04-16T21:42:18.105Z,61.03
2018-04-16T21:44:46.340Z,51.97
2018-04-16T21:47:14.565Z,51.23
2018-04-16T21:49:44.433Z,51.00
2018-04-16T21:52:12.631Z,50.83
2018-04-16T21:54:40.729Z,50.43
2018-04-16T21:57:09.673Z,46.67
2018-04-16T21:59:37.847Z,43.73
2018-04-16T22:02:06.075Z,41.90
2018-04-16T22:04:34.221Z,47.37
2018-04-16T22:07:02.370Z,54.07
2018-04-16T22:09:30.513Z,52.00
2018-04-16T22:11:59.818Z,56.20
2018-04-16T22:14:27.939Z,43.67
2018-04-16T22:16:56.077Z,53.73
2018-04-16T22:19:25.590Z,53.60
2018-04-16T22:21:53.757Z,51.10
2018-04-16T22:24:21.896Z,40.27
2018-04-16T22:26:50.004Z,50.00
2018-04-16T22:29:18.925Z,51.73
2018-04-16T22:31:47.942Z,60.87
2018-04-16T22:34:16.869Z,44.80
2018-04-16T22:36:44.988Z,49.83
2018-04-16T22:39:14.332Z,45.27
2018-04-16T22:41:47.379Z,43.90
2018-04-16T22:44:15.506Z,50.27
2018-04-16T22:46:43.634Z,52.90
2018-04-16T22:49:11.751Z,42.23
2018-04-16T22:51:39.872Z,39.17
2018-04-16T22:54:08.200Z,45.73
2018-04-16T22:56:36.319Z,44.70
2018-04-16T22:59:04.429Z,47.60
2018-04-16T23:01:32.543Z,41.90
2018-04-16T23:04:00.769Z,47.90
2018-04-16T23:06:29.648Z,29.97
2018-04-16T23:08:58.559Z,34.30
2018-04-16T23:11:27.484Z,34.47
2018-04-16T23:13:55.618Z,34.13
2018-04-16T23:16:23.737Z,34.23
2018-04-16T23:18:51.830Z,40.40
2018-04-16T23:21:19.951Z,29.70
2018-04-16T23:23:48.068Z,27.47
2018-04-16T23:26:16.269Z,34.13
2018-04-16T23:28:44.472Z,28.47
2018-04-16T23:31:12.725Z,26.80
2018-04-16T23:33:40.982Z,34.43
2018-04-16T23:36:09.263Z,37.47
2018-04-16T23:38:37.949Z,29.17
2018-04-16T23:41:07.302Z,34.23
2018-04-16T23:43:35.421Z,24.77
2018-04-16T23:46:03.547Z,27.63
2018-04-16T23:48:31.678Z,31.70
2018-04-16T23:50:59.783Z,32.27
2018-04-16T23:53:27.910Z,27.47
2018-04-16T23:55:56.157Z,29.57
2018-04-16T23:58:24.406Z,28.00
